sensor_id;sensor_type;location;lat;lon;timestamp;pressure;altitude;pressure_sealevel;temperature;humidity
21730;BME280;11027;51.030;13.812;2023-07-31T00:01:55;99937.78;;;17.29;72.37
21730;BME280;11027;51.030;13.812;2023-07-31T00:04:21;99935.28;;;17.27;71.95
21730;BME280;11027;51.030;13.812;2023-07-31T00:06:46;99936.34;;;17.26;71.85
21730;BME280;11027;51.030;13.812;2023-07-31T00:09:11;99936.56;;;17.25;72.16
21730;BME280;11027;51.030;13.812;2023-07-31T00:11:37;99942.94;;;17.25;71.96
21730;BME280;11027;51.030;13.812;2023-07-31T00:14:02;99936.34;;;17.26;71.77
21730;BME280;11027;51.030;13.812;2023-07-31T00:16:27;99934.06;;;17.23;71.55
21730;BME280;11027;51.030;13.812;2023-07-31T00:18:52;99937.88;;;17.22;71.75
21730;BME280;11027;51.030;13.812;2023-07-31T00:21:18;99942.56;;;17.22;71.35
21730;BME280;11027;51.030;13.812;2023-07-31T00:23:43;99939.41;;;17.18;71.21
21730;BME280;11027;51.030;13.812;2023-07-31T00:26:08;99936.25;;;17.14;71.50
21730;BME280;11027;51.030;13.812;2023-07-31T00:28:34;99936.53;;;17.13;71.48
21730;BME280;11027;51.030;13.812;2023-07-31T00:30:59;99927.19;;;17.14;71.48
21730;BME280;11027;51.030;13.812;2023-07-31T00:33:24;99929.94;;;17.14;71.30
21730;BME280;11027;51.030;13.812;2023-07-31T00:35:49;99921.28;;;17.10;71.34
21730;BME280;11027;51.030;13.812;2023-07-31T00:38:15;99926.56;;;17.12;71.28
21730;BME280;11027;51.030;13.812;2023-07-31T00:40:40;99935.44;;;17.14;71.06
21730;BME280;11027;51.030;13.812;2023-07-31T00:43:05;99922.28;;;17.16;71.00
21730;BME280;11027;51.030;13.812;2023-07-31T00:45:31;99918.47;;;17.17;70.79
21730;BME280;11027;51.030;13.812;2023-07-31T00:47:57;99929.47;;;17.17;70.62
21730;BME280;11027;51.030;13.812;2023-07-31T00:50:24;99914.63;;;17.18;70.47
21730;BME280;11027;51.030;13.812;2023-07-31T00:52:50;99919.69;;;17.21;70.32
21730;BME280;11027;51.030;13.812;2023-07-31T00:55:16;99918.00;;;17.20;70.04
21730;BME280;11027;51.030;13.812;2023-07-31T00:57:41;99919.69;;;17.21;69.78
21730;BME280;11027;51.030;13.812;2023-07-31T01:00:08;99917.56;;;17.23;69.50
21730;BME280;11027;51.030;13.812;2023-07-31T01:02:34;99918.59;;;17.22;69.06
21730;BME280;11027;51.030;13.812;2023-07-31T01:05:00;99917.78;;;17.22;68.96
21730;BME280;11027;51.030;13.812;2023-07-31T01:07:32;99918.59;;;17.22;69.06
21730;BME280;11027;51.030;13.812;2023-07-31T01:10:17;99913.72;;;17.24;68.77
21730;BME280;11027;51.030;13.812;2023-07-31T01:12:45;99908.22;;;17.24;68.60
21730;BME280;11027;51.030;13.812;2023-07-31T01:15:11;99906.28;;;17.25;68.18
21730;BME280;11027;51.030;13.812;2023-07-31T01:17:37;99899.72;;;17.26;67.72
21730;BME280;11027;51.030;13.812;2023-07-31T01:20:05;99912.66;;;17.25;67.50
21730;BME280;11027;51.030;13.812;2023-07-31T01:28:25;99895.06;;;17.26;66.47
21730;BME280;11027;51.030;13.812;2023-07-31T01:30:55;99892.91;;;17.28;66.43
21730;BME280;11027;51.030;13.812;2023-07-31T01:33:22;99894.59;;;17.29;66.27
21730;BME280;11027;51.030;13.812;2023-07-31T01:35:48;99893.50;;;17.30;66.08
21730;BME280;11027;51.030;13.812;2023-07-31T01:38:13;99894.13;;;17.32;66.05
21730;BME280;11027;51.030;13.812;2023-07-31T01:40:41;99885.63;;;17.34;66.13
21730;BME280;11027;51.030;13.812;2023-07-31T01:43:07;99897.97;;;17.31;66.04
21730;BME280;11027;51.030;13.812;2023-07-31T01:45:32;99898.78;;;17.32;65.94
21730;BME280;11027;51.030;13.812;2023-07-31T01:47:57;99887.31;;;17.35;65.57
21730;BME280;11027;51.030;13.812;2023-07-31T01:50:23;99892.38;;;17.38;65.42
21730;BME280;11027;51.030;13.812;2023-07-31T01:52:48;99883.88;;;17.39;65.15
21730;BME280;11027;51.030;13.812;2023-07-31T01:55:13;99880.03;;;17.40;65.25
21730;BME280;11027;51.030;13.812;2023-07-31T01:57:38;99876.69;;;17.38;65.07
21730;BME280;11027;51.030;13.812;2023-07-31T02:00:04;99879.19;;;17.40;65.08
21730;BME280;11027;51.030;13.812;2023-07-31T02:02:30;99875.13;;;17.43;65.10
21730;BME280;11027;51.030;13.812;2023-07-31T02:04:55;99874.06;;;17.44;65.27
21730;BME280;11027;51.030;13.812;2023-07-31T02:07:20;99879.09;;;17.47;65.17
21730;BME280;11027;51.030;13.812;2023-07-31T02:09:46;99874.69;;;17.46;65.30
21730;BME280;11027;51.030;13.812;2023-07-31T02:12:13;99876.13;;;17.48;65.69
21730;BME280;11027;51.030;13.812;2023-07-31T02:14:39;99869.31;;;17.51;65.26
21730;BME280;11027;51.030;13.812;2023-07-31T02:17:05;99867.16;;;17.53;65.68
21730;BME280;11027;51.030;13.812;2023-07-31T02:19:30;99876.03;;;17.55;65.58
21730;BME280;11027;51.030;13.812;2023-07-31T02:21:55;99872.22;;;17.56;65.26
21730;BME280;11027;51.030;13.812;2023-07-31T02:24:21;99870.88;;;17.58;65.47
21730;BME280;11027;51.030;13.812;2023-07-31T02:26:46;99867.91;;;17.60;65.50
21730;BME280;11027;51.030;13.812;2023-07-31T02:29:11;99869.56;;;17.61;65.24
21730;BME280;11027;51.030;13.812;2023-07-31T02:31:36;99872.31;;;17.61;65.23
21730;BME280;11027;51.030;13.812;2023-07-31T02:34:02;99869.56;;;17.61;64.93
21730;BME280;11027;51.030;13.812;2023-07-31T02:36:27;99869.34;;;17.63;65.01
21730;BME280;11027;51.030;13.812;2023-07-31T02:38:52;99874.63;;;17.64;65.03
21730;BME280;11027;51.030;13.812;2023-07-31T02:41:18;99869.13;;;17.64;64.65
21730;BME280;11027;51.030;13.812;2023-07-31T02:43:43;99864.22;;;17.66;64.54
21730;BME280;11027;51.030;13.812;2023-07-31T02:46:09;99867.81;;;17.67;64.32
21730;BME280;11027;51.030;13.812;2023-07-31T02:48:34;99865.88;;;17.67;64.22
21730;BME280;11027;51.030;13.812;2023-07-31T02:51:00;99862.28;;;17.67;64.46
21730;BME280;11027;51.030;13.812;2023-07-31T02:53:25;99858.47;;;17.68;64.00
21730;BME280;11027;51.030;13.812;2023-07-31T02:55:50;99858.72;;;17.66;64.08
21730;BME280;11027;51.030;13.812;2023-07-31T02:58:15;99858.09;;;17.64;64.34
21730;BME280;11027;51.030;13.812;2023-07-31T03:00:44;99858.09;;;17.64;64.24
21730;BME280;11027;51.030;13.812;2023-07-31T03:03:10;99857.28;;;17.64;64.52
21730;BME280;11027;51.030;13.812;2023-07-31T03:05:35;99863.63;;;17.64;64.65
21730;BME280;11027;51.030;13.812;2023-07-31T03:08:01;99851.75;;;17.64;64.51
21730;BME280;11027;51.030;13.812;2023-07-31T03:10:26;99858.94;;;17.65;64.70
21730;BME280;11027;51.030;13.812;2023-07-31T03:12:51;99858.09;;;17.64;64.26
21730;BME280;11027;51.030;13.812;2023-07-31T03:15:17;99861.69;;;17.65;64.24
21730;BME280;11027;51.030;13.812;2023-07-31T03:17:42;99870.78;;;17.65;64.58
21730;BME280;11027;51.030;13.812;2023-07-31T03:20:08;99858.09;;;17.64;64.14
21730;BME280;11027;51.030;13.812;2023-07-31T03:22:33;99863.63;;;17.64;63.55
21730;BME280;11027;51.030;13.812;2023-07-31T03:25:00;99865.28;;;17.65;63.34
21730;BME280;11027;51.030;13.812;2023-07-31T03:27:25;99869.94;;;17.65;63.47
21730;BME280;11027;51.030;13.812;2023-07-31T03:29:50;99870.19;;;17.63;62.97
21730;BME280;11027;51.030;13.812;2023-07-31T03:32:17;99879.91;;;17.66;63.01
21730;BME280;11027;51.030;13.812;2023-07-31T03:34:42;99880.75;;;17.66;62.64
21730;BME280;11027;51.030;13.812;2023-07-31T03:37:07;99878.00;;;17.66;62.23
21730;BME280;11027;51.030;13.812;2023-07-31T03:39:34;99876.91;;;17.67;62.05
21730;BME280;11027;51.030;13.812;2023-07-31T03:41:59;99898.34;;;17.65;62.03
21730;BME280;11027;51.030;13.812;2023-07-31T03:44:25;99878.44;;;17.63;62.29
21730;BME280;11027;51.030;13.812;2023-07-31T03:46:50;99880.13;;;17.64;62.30
21730;BME280;11027;51.030;13.812;2023-07-31T03:49:15;99886.47;;;17.65;62.59
21730;BME280;11027;51.030;13.812;2023-07-31T03:51:40;99886.47;;;17.65;63.55
21730;BME280;11027;51.030;13.812;2023-07-31T03:54:06;99893.31;;;17.62;64.64
21730;BME280;11027;51.030;13.812;2023-07-31T03:56:33;99889.78;;;17.55;66.21
21730;BME280;11027;51.030;13.812;2023-07-31T03:58:58;99876.13;;;17.48;67.44
21730;BME280;11027;51.030;13.812;2023-07-31T04:01:23;99875.75;;;17.45;68.29
21730;BME280;11027;51.030;13.812;2023-07-31T04:03:48;99879.09;;;17.47;68.34
21730;BME280;11027;51.030;13.812;2023-07-31T04:06:14;99867.88;;;17.48;68.86
21730;BME280;11027;51.030;13.812;2023-07-31T04:08:43;99873.59;;;17.47;69.39
21730;BME280;11027;51.030;13.812;2023-07-31T04:11:08;99863.06;;;17.44;69.79
21730;BME280;11027;51.030;13.812;2023-07-31T04:13:33;99858.16;;;17.46;70.29
21730;BME280;11027;51.030;13.812;2023-07-31T04:15:58;99864.72;;;17.45;70.27
21730;BME280;11027;51.030;13.812;2023-07-31T04:18:25;99863.06;;;17.44;70.86
21730;BME280;11027;51.030;13.812;2023-07-31T04:20:50;99874.06;;;17.44;71.51
21730;BME280;11027;51.030;13.812;2023-07-31T04:23:16;99863.91;;;17.44;71.46
21730;BME280;11027;51.030;13.812;2023-07-31T04:25:41;99863.91;;;17.44;71.57
21730;BME280;11027;51.030;13.812;2023-07-31T04:28:06;99866.88;;;17.43;72.43
21730;BME280;11027;51.030;13.812;2023-07-31T04:30:32;99856.13;;;17.41;72.74
21730;BME280;11027;51.030;13.812;2023-07-31T04:32:58;99848.41;;;17.31;73.70
21730;BME280;11027;51.030;13.812;2023-07-31T04:35:23;99850.91;;;17.33;73.85
21730;BME280;11027;51.030;13.812;2023-07-31T04:37:48;99848.31;;;17.38;74.04
21730;BME280;11027;51.030;13.812;2023-07-31T04:40:15;99847.94;;;17.34;74.92
21730;BME280;11027;51.030;13.812;2023-07-31T04:42:40;99844.13;;;17.35;75.38
21730;BME280;11027;51.030;13.812;2023-07-31T04:45:08;99839.66;;;17.34;75.28
21730;BME280;11027;51.030;13.812;2023-07-31T04:47:33;99830.09;;;17.37;75.37
21730;BME280;11027;51.030;13.812;2023-07-31T04:49:59;99829.88;;;17.38;75.45
21730;BME280;11027;51.030;13.812;2023-07-31T04:52:24;99825.56;;;17.43;75.47
21730;BME280;11027;51.030;13.812;2023-07-31T04:54:49;99830.63;;;17.46;75.72
21730;BME280;11027;51.030;13.812;2023-07-31T04:57:14;99822.97;;;17.48;75.64
21730;BME280;11027;51.030;13.812;2023-07-31T04:59:40;99826.09;;;17.51;75.63
21730;BME280;11027;51.030;13.812;2023-07-31T05:02:07;99815.44;;;17.55;75.94
21730;BME280;11027;51.030;13.812;2023-07-31T05:04:32;99826.22;;;17.56;76.14
21730;BME280;11027;51.030;13.812;2023-07-31T05:06:57;99819.66;;;17.57;76.30
21730;BME280;11027;51.030;13.812;2023-07-31T05:09:22;99826.00;;;17.58;76.39
21730;BME280;11027;51.030;13.812;2023-07-31T05:11:48;99824.06;;;17.58;76.33
21730;BME280;11027;51.030;13.812;2023-07-31T05:14:13;99820.47;;;17.58;76.61
21730;BME280;11027;51.030;13.812;2023-07-31T05:16:39;99818.34;;;17.60;77.24
21730;BME280;11027;51.030;13.812;2023-07-31T05:19:04;99814.97;;;17.58;77.13
21730;BME280;11027;51.030;13.812;2023-07-31T05:21:29;99826.00;;;17.58;76.54
21730;BME280;11027;51.030;13.812;2023-07-31T05:23:54;99814.16;;;17.57;76.75
21730;BME280;11027;51.030;13.812;2023-07-31T05:26:20;99810.78;;;17.55;77.36
21730;BME280;11027;51.030;13.812;2023-07-31T05:28:45;99812.22;;;17.58;77.60
21730;BME280;11027;51.030;13.812;2023-07-31T05:31:10;99814.75;;;17.59;77.61
21730;BME280;11027;51.030;13.812;2023-07-31T05:33:35;99812.34;;;17.63;77.32
21730;BME280;11027;51.030;13.812;2023-07-31T05:36:01;99806.00;;;17.63;76.27
21730;BME280;11027;51.030;13.812;2023-07-31T05:38:26;99803.00;;;17.64;76.30
21730;BME280;11027;51.030;13.812;2023-07-31T05:40:51;99805.28;;;17.67;75.99
21730;BME280;11027;51.030;13.812;2023-07-31T05:43:17;99803.72;;;17.71;75.49
21730;BME280;11027;51.030;13.812;2023-07-31T05:45:42;99803.28;;;17.74;75.50
21730;BME280;11027;51.030;13.812;2023-07-31T05:48:08;99808.31;;;17.77;75.14
21730;BME280;11027;51.030;13.812;2023-07-31T05:50:33;99797.31;;;17.77;75.44
21730;BME280;11027;51.030;13.812;2023-07-31T05:52:58;99805.69;;;17.83;74.76
21730;BME280;11027;51.030;13.812;2023-07-31T05:55:24;99802.50;;;17.86;74.71
21730;BME280;11027;51.030;13.812;2023-07-31T05:57:52;99795.91;;;17.87;74.40
21730;BME280;11027;51.030;13.812;2023-07-31T06:00:17;99798.41;;;17.88;73.94
21730;BME280;11027;51.030;13.812;2023-07-31T06:02:43;99797.59;;;17.88;73.92
21730;BME280;11027;51.030;13.812;2023-07-31T06:05:08;99806.47;;;17.90;73.87
21730;BME280;11027;51.030;13.812;2023-07-31T06:07:33;99788.22;;;17.89;73.84
21730;BME280;11027;51.030;13.812;2023-07-31T06:09:59;99794.56;;;17.89;73.77
21730;BME280;11027;51.030;13.812;2023-07-31T06:12:33;99797.31;;;17.89;73.54
21730;BME280;11027;51.030;13.812;2023-07-31T06:14:59;99780.56;;;17.91;73.58
21730;BME280;11027;51.030;13.812;2023-07-31T06:17:24;99791.13;;;17.94;73.41
21730;BME280;11027;51.030;13.812;2023-07-31T06:19:51;99783.91;;;17.93;73.46
21730;BME280;11027;51.030;13.812;2023-07-31T06:22:17;99794.94;;;17.93;73.64
21730;BME280;11027;51.030;13.812;2023-07-31T06:24:42;99791.47;;;17.97;73.24
21730;BME280;11027;51.030;13.812;2023-07-31T06:27:07;99791.38;;;18.04;73.22
21730;BME280;11027;51.030;13.812;2023-07-31T06:29:33;99794.22;;;18.09;72.95
21730;BME280;11027;51.030;13.812;2023-07-31T06:31:58;99794.84;;;18.11;72.55
21730;BME280;11027;51.030;13.812;2023-07-31T06:34:24;99794.22;;;18.09;72.64
21730;BME280;11027;51.030;13.812;2023-07-31T06:36:49;99790.41;;;18.10;72.17
21730;BME280;11027;51.030;13.812;2023-07-31T06:39:14;99791.25;;;18.11;72.47
21730;BME280;11027;51.030;13.812;2023-07-31T06:41:40;99791.84;;;18.13;72.35
21730;BME280;11027;51.030;13.812;2023-07-31T06:44:05;99788.72;;;18.09;71.90
21730;BME280;11027;51.030;13.812;2023-07-31T06:46:30;99792.06;;;18.11;71.88
21730;BME280;11027;51.030;13.812;2023-07-31T06:48:56;99787.16;;;18.13;71.72
21730;BME280;11027;51.030;13.812;2023-07-31T06:51:22;99789.91;;;18.13;72.01
21730;BME280;11027;51.030;13.812;2023-07-31T06:53:47;99783.94;;;18.16;71.85
21730;BME280;11027;51.030;13.812;2023-07-31T06:56:13;99790.66;;;18.21;71.72
21730;BME280;11027;51.030;13.812;2023-07-31T06:58:38;99791.34;;;18.28;71.58
21730;BME280;11027;51.030;13.812;2023-07-31T07:01:04;99782.00;;;18.29;71.37
21730;BME280;11027;51.030;13.812;2023-07-31T07:03:29;99793.75;;;18.36;71.20
21730;BME280;11027;51.030;13.812;2023-07-31T07:05:54;99795.78;;;18.41;70.75
21730;BME280;11027;51.030;13.812;2023-07-31T07:08:20;99790.50;;;18.39;70.26
21730;BME280;11027;51.030;13.812;2023-07-31T07:10:45;99793.88;;;18.41;70.00
21730;BME280;11027;51.030;13.812;2023-07-31T07:13:11;99792.81;;;18.42;69.55
21730;BME280;11027;51.030;13.812;2023-07-31T07:15:37;99788.94;;;18.43;69.91
21730;BME280;11027;51.030;13.812;2023-07-31T07:18:03;99785.81;;;18.51;70.06
21730;BME280;11027;51.030;13.812;2023-07-31T07:20:28;99790.38;;;18.57;69.80
21730;BME280;11027;51.030;13.812;2023-07-31T07:22:54;99791.56;;;18.62;69.42
21730;BME280;11027;51.030;13.812;2023-07-31T07:25:19;99792.75;;;18.66;68.83
21730;BME280;11027;51.030;13.812;2023-07-31T07:27:44;99791.78;;;18.72;68.78
21730;BME280;11027;51.030;13.812;2023-07-31T07:30:09;99780.97;;;18.82;68.70
21730;BME280;11027;51.030;13.812;2023-07-31T07:32:35;99779.03;;;18.94;68.54
21730;BME280;11027;51.030;13.812;2023-07-31T07:35:00;99794.13;;;19.04;68.18
21730;BME280;11027;51.030;13.812;2023-07-31T07:37:25;99791.47;;;19.09;67.52
21730;BME280;11027;51.030;13.812;2023-07-31T07:39:51;99794.31;;;19.14;67.38
21730;BME280;11027;51.030;13.812;2023-07-31T07:42:16;99789.38;;;19.16;66.81
21730;BME280;11027;51.030;13.812;2023-07-31T07:44:41;99778.84;;;19.13;66.71
21730;BME280;11027;51.030;13.812;2023-07-31T07:47:06;99784.09;;;19.14;66.94
21730;BME280;11027;51.030;13.812;2023-07-31T07:49:33;99784.38;;;19.13;66.95
21730;BME280;11027;51.030;13.812;2023-07-31T07:51:58;99779.94;;;19.12;67.09
21730;BME280;11027;51.030;13.812;2023-07-31T07:54:23;99799.41;;;19.05;66.49
21730;BME280;11027;51.030;13.812;2023-07-31T07:56:49;99789.06;;;19.01;66.31
21730;BME280;11027;51.030;13.812;2023-07-31T07:59:14;99792.94;;;18.99;66.74
21730;BME280;11027;51.030;13.812;2023-07-31T08:01:40;99790.06;;;18.94;66.50
21730;BME280;11027;51.030;13.812;2023-07-31T08:04:05;99787.06;;;18.96;66.66
21730;BME280;11027;51.030;13.812;2023-07-31T08:06:30;99786.91;;;19.03;66.75
21730;BME280;11027;51.030;13.812;2023-07-31T08:08:56;99791.47;;;19.09;66.62
21730;BME280;11027;51.030;13.812;2023-07-31T08:11:21;99794.31;;;19.14;66.13
21730;BME280;11027;51.030;13.812;2023-07-31T08:13:48;99799.22;;;19.24;66.12
21730;BME280;11027;51.030;13.812;2023-07-31T08:16:14;99802.28;;;19.39;66.31
21730;BME280;11027;51.030;13.812;2023-07-31T08:18:39;99805.06;;;19.56;65.79
21730;BME280;11027;51.030;13.812;2023-07-31T08:21:05;99799.72;;;19.66;65.00
21730;BME280;11027;51.030;13.812;2023-07-31T08:23:31;99807.03;;;19.72;64.73
21730;BME280;11027;51.030;13.812;2023-07-31T08:25:56;99806.03;;;19.78;65.20
21730;BME280;11027;51.030;13.812;2023-07-31T08:28:21;99802.19;;;19.80;64.41
21730;BME280;11027;51.030;13.812;2023-07-31T08:30:46;99799.75;;;19.83;64.63
21730;BME280;11027;51.030;13.812;2023-07-31T08:33:12;99808.38;;;19.87;64.64
21730;BME280;11027;51.030;13.812;2023-07-31T08:35:37;99795.66;;;19.86;64.02
21730;BME280;11027;51.030;13.812;2023-07-31T08:38:02;99799.50;;;19.85;63.94
21730;BME280;11027;51.030;13.812;2023-07-31T08:40:28;99796.16;;;19.83;64.14
21730;BME280;11027;51.030;13.812;2023-07-31T08:42:55;99799.34;;;19.74;64.04
21730;BME280;11027;51.030;13.812;2023-07-31T08:45:27;99796.56;;;19.74;64.22
21730;BME280;11027;51.030;13.812;2023-07-31T08:47:52;99807.88;;;19.73;64.49
21730;BME280;11027;51.030;13.812;2023-07-31T08:50:20;99805.81;;;19.68;64.34
21730;BME280;11027;51.030;13.812;2023-07-31T08:52:46;99793.06;;;19.67;64.69
21730;BME280;11027;51.030;13.812;2023-07-31T08:55:12;99794.19;;;19.66;64.52
21730;BME280;11027;51.030;13.812;2023-07-31T08:57:38;99784.72;;;19.62;64.64
21730;BME280;11027;51.030;13.812;2023-07-31T09:00:05;99791.84;;;19.58;64.70
21730;BME280;11027;51.030;13.812;2023-07-31T09:05:11;99792.66;;;19.58;64.82
21730;BME280;11027;51.030;13.812;2023-07-31T09:07:37;99793.25;;;19.61;64.80
21730;BME280;11027;51.030;13.812;2023-07-31T09:10:03;99795.44;;;19.58;64.73
21730;BME280;11027;51.030;13.812;2023-07-31T09:12:29;99794.84;;;19.56;64.92
21730;BME280;11027;51.030;13.812;2023-07-31T09:14:56;99792.06;;;19.56;64.32
21730;BME280;11027;51.030;13.812;2023-07-31T09:17:32;99806.13;;;19.55;64.30
21730;BME280;11027;51.030;13.812;2023-07-31T09:19:57;99798.94;;;19.54;64.24
21730;BME280;11027;51.030;13.812;2023-07-31T09:22:35;99797.25;;;19.53;64.17
21730;BME280;11027;51.030;13.812;2023-07-31T09:25:21;99784.53;;;19.52;64.63
21730;BME280;11027;51.030;13.812;2023-07-31T09:28:03;99789.56;;;19.55;64.49
21730;BME280;11027;51.030;13.812;2023-07-31T09:30:28;99782.38;;;19.54;64.45
21730;BME280;11027;51.030;13.812;2023-07-31T09:33:03;99788.25;;;19.57;64.56
21730;BME280;11027;51.030;13.812;2023-07-31T09:35:32;99776.66;;;19.61;63.99
21730;BME280;11027;51.030;13.812;2023-07-31T09:38:09;99771.97;;;19.61;64.02
21730;BME280;11027;51.030;13.812;2023-07-31T09:40:36;99775.31;;;19.63;63.68
21730;BME280;11027;51.030;13.812;2023-07-31T09:43:06;99766.44;;;19.61;63.56
21730;BME280;11027;51.030;13.812;2023-07-31T09:45:35;99766.44;;;19.61;63.97
21730;BME280;11027;51.030;13.812;2023-07-31T09:48:10;99773.06;;;19.60;63.81
21730;BME280;11027;51.030;13.812;2023-07-31T09:50:37;99764.78;;;19.60;63.32
21730;BME280;11027;51.030;13.812;2023-07-31T09:53:03;99760.44;;;19.64;63.18
21730;BME280;11027;51.030;13.812;2023-07-31T09:55:29;99759.09;;;19.67;63.22
21730;BME280;11027;51.030;13.812;2023-07-31T09:57:56;99767.13;;;19.68;63.27
21730;BME280;11027;51.030;13.812;2023-07-31T10:00:23;99764.13;;;19.70;62.57
21730;BME280;11027;51.030;13.812;2023-07-31T10:02:50;99760.63;;;19.74;62.69
21730;BME280;11027;51.030;13.812;2023-07-31T10:05:16;99757.97;;;19.80;62.60
21730;BME280;11027;51.030;13.812;2023-07-31T10:07:45;99748.56;;;19.81;62.43
21730;BME280;11027;51.030;13.812;2023-07-31T10:10:13;99759.16;;;19.84;62.42
21730;BME280;11027;51.030;13.812;2023-07-31T10:12:40;99751.44;;;19.86;62.36
21730;BME280;11027;51.030;13.812;2023-07-31T10:15:06;99747.09;;;19.90;62.42
21730;BME280;11027;51.030;13.812;2023-07-31T10:17:33;99742.72;;;19.94;62.41
21730;BME280;11027;51.030;13.812;2023-07-31T10:20:01;99734.72;;;19.97;62.49
21730;BME280;11027;51.030;13.812;2023-07-31T10:22:29;99747.25;;;20.00;62.29
21730;BME280;11027;51.030;13.812;2023-07-31T10:24:58;99745.53;;;19.99;61.73
21730;BME280;11027;51.030;13.812;2023-07-31T10:27:23;99737.25;;;19.99;61.39
21730;BME280;11027;51.030;13.812;2023-07-31T10:29:50;99727.88;;;20.00;61.44
21730;BME280;11027;51.030;13.812;2023-07-31T10:32:17;99735.91;;;20.02;61.35
21730;BME280;11027;51.030;13.812;2023-07-31T10:34:42;99725.75;;;20.07;61.38
21730;BME280;11027;51.030;13.812;2023-07-31T10:37:30;99723.09;;;20.12;61.17
21730;BME280;11027;51.030;13.812;2023-07-31T10:42:28;99727.66;;;20.24;61.33
21730;BME280;11027;51.030;13.812;2023-07-31T10:44:58;99720.34;;;20.34;61.01
21730;BME280;11027;51.030;13.812;2023-07-31T10:47:24;99707.72;;;20.44;60.66
21730;BME280;11027;51.030;13.812;2023-07-31T10:49:49;99708.72;;;20.54;60.25
21730;BME280;11027;51.030;13.812;2023-07-31T10:52:20;99707.19;;;20.64;60.29
21730;BME280;11027;51.030;13.812;2023-07-31T10:54:49;99705.66;;;20.73;60.40
21730;BME280;11027;51.030;13.812;2023-07-31T10:57:22;99706.81;;;20.77;60.11
21730;BME280;11027;51.030;13.812;2023-07-31T10:59:48;99703.78;;;20.78;59.90
21730;BME280;11027;51.030;13.812;2023-07-31T11:02:25;99698.53;;;20.82;59.89
21730;BME280;11027;51.030;13.812;2023-07-31T11:05:10;99697.47;;;20.83;60.23
21730;BME280;11027;51.030;13.812;2023-07-31T11:07:46;99709.59;;;20.82;59.92
21730;BME280;11027;51.030;13.812;2023-07-31T11:10:16;99701.88;;;20.84;59.80
21730;BME280;11027;51.030;13.812;2023-07-31T11:12:41;99697.50;;;20.88;59.70
21730;BME280;11027;51.030;13.812;2023-07-31T11:15:07;99702.53;;;20.91;59.62
21730;BME280;11027;51.030;13.812;2023-07-31T11:17:32;99694.22;;;20.91;59.56
21730;BME280;11027;51.030;13.812;2023-07-31T11:19:57;99687.56;;;20.92;59.63
21730;BME280;11027;51.030;13.812;2023-07-31T11:22:23;99680.38;;;20.91;59.93
21730;BME280;11027;51.030;13.812;2023-07-31T11:24:48;99687.28;;;20.89;59.74
21730;BME280;11027;51.030;13.812;2023-07-31T11:27:13;99681.75;;;20.89;59.62
21730;BME280;11027;51.030;13.812;2023-07-31T11:29:38;99695.31;;;20.90;60.36
21730;BME280;11027;51.030;13.812;2023-07-31T11:32:04;99685.59;;;20.88;59.85
21730;BME280;11027;51.030;13.812;2023-07-31T11:34:29;99695.84;;;20.87;60.42
21730;BME280;11027;51.030;13.812;2023-07-31T11:36:55;99686.75;;;20.92;61.32
21730;BME280;11027;51.030;13.812;2023-07-31T11:39:20;99679.91;;;21.00;61.31
21730;BME280;11027;51.030;13.812;2023-07-31T11:41:45;99680.59;;;21.12;61.64
21730;BME280;11027;51.030;13.812;2023-07-31T11:44:11;99681.31;;;21.29;61.53
21730;BME280;11027;51.030;13.812;2023-07-31T11:46:36;99681.97;;;21.42;60.90
21730;BME280;11027;51.030;13.812;2023-07-31T11:49:01;99679.31;;;21.52;60.18
21730;BME280;11027;51.030;13.812;2023-07-31T11:51:27;99674.47;;;21.69;60.08
21730;BME280;11027;51.030;13.812;2023-07-31T11:53:56;99669.88;;;21.90;59.85
21730;BME280;11027;51.030;13.812;2023-07-31T11:56:23;99664.16;;;22.07;59.54
21730;BME280;11027;51.030;13.812;2023-07-31T11:58:53;99656.94;;;22.06;58.76
21730;BME280;11027;51.030;13.812;2023-07-31T12:01:19;99655.31;;;22.15;59.05
21730;BME280;11027;51.030;13.812;2023-07-31T12:03:46;99642.63;;;22.25;58.85
21730;BME280;11027;51.030;13.812;2023-07-31T12:06:11;99644.06;;;22.32;58.75
21730;BME280;11027;51.030;13.812;2023-07-31T12:08:37;99645.19;;;22.42;58.42
21730;BME280;11027;51.030;13.812;2023-07-31T12:11:04;99643.88;;;22.60;58.41
21730;BME280;11027;51.030;13.812;2023-07-31T12:13:31;99631.44;;;22.77;58.23
21730;BME280;11027;51.030;13.812;2023-07-31T12:15:58;99623.41;;;22.96;57.52
21730;BME280;11027;51.030;13.812;2023-07-31T12:18:25;99624.00;;;23.04;56.47
21730;BME280;11027;51.030;13.812;2023-07-31T12:21:02;99629.00;;;23.12;56.22
21730;BME280;11027;51.030;13.812;2023-07-31T12:23:31;99623.72;;;23.05;56.25
21730;BME280;11027;51.030;13.812;2023-07-31T12:26:11;99625.63;;;23.00;55.94
21730;BME280;11027;51.030;13.812;2023-07-31T12:28:41;99614.22;;;22.96;55.93
21730;BME280;11027;51.030;13.812;2023-07-31T12:31:09;99610.06;;;22.83;55.92
21730;BME280;11027;51.030;13.812;2023-07-31T12:33:36;99603.41;;;22.79;55.97
21730;BME280;11027;51.030;13.812;2023-07-31T12:36:07;99597.28;;;22.87;56.07
21730;BME280;11027;51.030;13.812;2023-07-31T12:38:32;99606.78;;;23.02;55.13
21730;BME280;11027;51.030;13.812;2023-07-31T12:40:58;99601.25;;;23.27;54.40
21730;BME280;11027;51.030;13.812;2023-07-31T12:43:23;99600.09;;;23.49;54.23
21730;BME280;11027;51.030;13.812;2023-07-31T12:45:49;99587.84;;;23.55;53.93
21730;BME280;11027;51.030;13.812;2023-07-31T12:48:14;99579.47;;;23.70;53.57
21730;BME280;11027;51.030;13.812;2023-07-31T12:50:39;99580.06;;;23.78;53.22
21730;BME280;11027;51.030;13.812;2023-07-31T12:53:05;99577.22;;;23.93;53.24
21730;BME280;11027;51.030;13.812;2023-07-31T12:55:31;99563.91;;;23.85;52.81
21730;BME280;11027;51.030;13.812;2023-07-31T12:57:56;99563.91;;;23.74;52.96